createdAt,value
2022-08-05T00:01:36.412Z,8.85
2022-08-05T00:04:18.452Z,9.40
2022-08-05T00:06:51.721Z,9.55
2022-08-05T00:09:21.518Z,10.32
2022-08-05T00:11:56.159Z,10.18
2022-08-05T00:14:31.519Z,13.18
2022-08-05T00:17:01.657Z,10.77
2022-08-05T00:19:33.337Z,11.52
2022-08-05T00:22:03.379Z,8.52
2022-08-05T00:24:33.809Z,9.20
2022-08-05T00:27:04.824Z,10.60
2022-08-05T00:29:41.322Z,10.77
2022-08-05T00:32:15.015Z,9.65
2022-08-05T00:35:05.689Z,10.38
2022-08-05T00:37:52.580Z,9.68
2022-08-05T00:40:26.886Z,9.73
2022-08-05T00:43:00.352Z,11.48
2022-08-05T00:45:42.921Z,9.80
2022-08-05T00:48:15.041Z,8.75
2022-08-05T00:50:46.906Z,10.65
2022-08-05T00:54:00.765Z,11.65
2022-08-05T00:56:08.210Z,10.45
2022-08-05T00:58:37.509Z,9.70
2022-08-05T01:01:09.620Z,10.82
2022-08-05T01:03:39.143Z,8.65
2022-08-05T01:06:14.134Z,9.52
2022-08-05T01:08:44.991Z,12.63
2022-08-05T01:11:33.661Z,10.52
2022-08-05T01:14:15.406Z,11.10
2022-08-05T01:16:53.606Z,12.98
2022-08-05T01:19:56.576Z,11.65
2022-08-05T01:22:40.861Z,8.93
2022-08-05T01:25:53.204Z,14.48
2022-08-05T01:28:34.275Z,9.68
2022-08-05T01:31:11.971Z,11.80
2022-08-05T01:33:58.084Z,12.27
2022-08-05T01:36:35.306Z,18.85
2022-08-05T01:39:13.512Z,15.38
2022-08-05T01:41:44.813Z,14.60
2022-08-05T01:44:16.868Z,13.40
2022-08-05T01:46:46.939Z,14.18
2022-08-05T01:49:23.996Z,14.27
2022-08-05T01:51:59.950Z,11.15
2022-08-05T01:54:46.057Z,15.50
2022-08-05T01:58:11.649Z,10.93
2022-08-05T02:02:54.517Z,10.05
2022-08-05T02:05:28.854Z,11.27
2022-08-05T02:07:59.985Z,9.98
2022-08-05T02:10:37.774Z,12.63
2022-08-05T02:13:16.533Z,12.38
2022-08-05T02:15:52.978Z,11.27
2022-08-05T02:18:34.210Z,10.02
2022-08-05T02:21:15.570Z,10.13
2022-08-05T02:23:49.940Z,12.80
2022-08-05T02:26:26.588Z,14.25
2022-08-05T02:28:58.525Z,11.80
2022-08-05T02:31:34.808Z,12.02
2022-08-05T02:34:09.309Z,14.73
2022-08-05T02:36:45.186Z,10.40
2022-08-05T02:39:21.444Z,10.63
2022-08-05T02:42:00.874Z,11.95
2022-08-05T02:44:33.161Z,12.05
2022-08-05T02:47:09.629Z,9.40
2022-08-05T02:49:42.887Z,13.02
2022-08-05T02:52:25.957Z,12.98
2022-08-05T02:55:05.618Z,11.57
2022-08-05T02:58:12.235Z,10.13
2022-08-05T03:00:31.138Z,13.32
2022-08-05T03:03:03.393Z,14.07
2022-08-05T03:06:53.943Z,14.52
2022-08-05T03:08:32.182Z,11.57
2022-08-05T03:11:56.273Z,12.32
2022-08-05T03:14:03.169Z,10.43
2022-08-05T03:16:32.680Z,15.70
2022-08-05T03:19:12.928Z,14.10
2022-08-05T03:21:50.078Z,12.80
2022-08-05T03:24:27.546Z,14.52
2022-08-05T03:27:00.610Z,10.05
2022-08-05T03:29:59.583Z,14.80
2022-08-05T03:32:20.558Z,15.13
2022-08-05T03:34:51.687Z,10.15
2022-08-05T03:37:22.646Z,10.88
2022-08-05T03:40:01.737Z,10.65
2022-08-05T03:42:41.563Z,11.20
2022-08-05T03:45:22.416Z,12.85
2022-08-05T03:47:57.171Z,16.48
2022-08-05T03:50:36.930Z,11.52
2022-08-05T03:55:53.869Z,14.32
2022-08-05T03:56:27.785Z,14.52
2022-08-05T03:59:05.069Z,16.90
2022-08-05T04:01:40.764Z,11.80
2022-08-05T04:04:11.655Z,13.68
2022-08-05T04:06:51.176Z,13.80
2022-08-05T04:09:25.881Z,17.05
2022-08-05T04:11:57.099Z,12.43
2022-08-05T04:14:30.191Z,16.30
2022-08-05T04:17:02.911Z,11.55
2022-08-05T04:19:32.379Z,13.38
2022-08-05T04:22:09.917Z,13.93
2022-08-05T04:24:43.814Z,12.25
2022-08-05T04:27:15.341Z,11.88
2022-08-05T04:29:44.546Z,12.82
2022-08-05T04:32:14.362Z,10.50
2022-08-05T04:34:49.137Z,11.52
2022-08-05T04:40:19.534Z,12.63
2022-08-05T04:42:48.847Z,16.10
2022-08-05T04:45:22.807Z,12.40
2022-08-05T04:47:52.099Z,11.40
2022-08-05T04:50:34.453Z,11.68
2022-08-05T04:53:08.901Z,11.25
2022-08-05T04:56:15.147Z,14.95
2022-08-05T04:58:27.515Z,12.63
2022-08-05T05:00:56.575Z,20.25
2022-08-05T05:03:25.683Z,14.40
2022-08-05T05:06:38.901Z,14.52
2022-08-05T05:08:52.106Z,14.20
2022-08-05T05:11:22.407Z,12.00
2022-08-05T05:14:16.082Z,12.20
2022-08-05T05:16:45.573Z,13.57
2022-08-05T05:19:26.537Z,18.20
2022-08-05T05:21:56.821Z,12.02
2022-08-05T05:24:56.190Z,13.95
2022-08-05T05:27:23.467Z,11.80
2022-08-05T05:30:04.380Z,13.70
2022-08-05T05:32:34.581Z,14.13
2022-08-05T05:35:04.760Z,12.05
2022-08-05T05:37:45.503Z,16.15
2022-08-05T05:40:26.249Z,11.45
2022-08-05T05:42:57.860Z,10.55
2022-08-05T05:45:27.186Z,12.38
2022-08-05T05:48:05.481Z,14.82
2022-08-05T05:50:44.008Z,9.35
2022-08-05T05:53:21.473Z,10.00
2022-08-05T05:56:01.374Z,12.23
2022-08-05T05:58:32.556Z,11.07
2022-08-05T06:01:12.057Z,9.65
2022-08-05T06:04:00.872Z,11.80
2022-08-05T06:06:33.216Z,8.60
2022-08-05T06:09:05.565Z,7.90
2022-08-05T06:11:39.387Z,12.95
2022-08-05T06:14:08.782Z,8.43
2022-08-05T06:16:37.887Z,7.63
2022-08-05T06:19:07.984Z,7.15
2022-08-05T06:21:42.318Z,7.88
2022-08-05T06:24:25.746Z,7.30
2022-08-05T06:26:57.840Z,8.25
2022-08-05T06:29:48.914Z,8.82
2022-08-05T06:32:25.411Z,7.35
2022-08-05T06:34:57.119Z,6.85
2022-08-05T06:37:56.014Z,6.90
2022-08-05T06:40:18.332Z,7.70
2022-08-05T06:42:52.890Z,8.13
2022-08-05T06:45:45.034Z,6.47
2022-08-05T06:48:55.451Z,8.82
2022-08-05T06:51:01.558Z,7.13
2022-08-05T06:53:39.389Z,5.40
2022-08-05T06:56:26.072Z,6.93
2022-08-05T06:58:57.736Z,5.20
2022-08-05T07:01:32.210Z,6.43
2022-08-05T07:04:03.113Z,5.82
2022-08-05T07:06:32.624Z,5.18
2022-08-05T07:09:03.871Z,5.60
2022-08-05T07:11:36.878Z,4.95
2022-08-05T07:14:29.406Z,5.35
2022-08-05T07:18:00.619Z,5.38
2022-08-05T07:22:43.262Z,6.38
2022-08-05T07:25:53.829Z,9.45
2022-08-05T07:28:11.452Z,7.45
2022-08-05T07:30:50.286Z,5.22
2022-08-05T07:33:35.239Z,8.25
2022-08-05T07:36:20.022Z,10.93
2022-08-05T07:38:55.042Z,11.30
2022-08-05T07:42:13.533Z,10.82
2022-08-05T07:44:19.049Z,10.93
2022-08-05T07:46:50.669Z,11.65
2022-08-05T07:49:20.959Z,5.97
2022-08-05T07:51:56.573Z,10.82
2022-08-05T07:54:38.555Z,7.03
2022-08-05T07:57:57.499Z,7.28
2022-08-05T08:01:30.017Z,8.05
2022-08-05T08:14:56.398Z,9.35
2022-08-05T08:17:28.540Z,6.72
2022-08-05T08:20:21.108Z,5.38
2022-08-05T08:22:55.848Z,5.55
2022-08-05T08:25:59.377Z,7.53
2022-08-05T08:28:35.513Z,4.70
2022-08-05T08:31:08.377Z,6.18
2022-08-05T08:33:38.561Z,6.45
2022-08-05T08:36:38.898Z,5.80
2022-08-05T08:39:01.648Z,5.82
2022-08-05T08:41:51.989Z,4.60
2022-08-05T08:45:19.056Z,5.18
2022-08-05T08:48:05.597Z,7.28
2022-08-05T08:50:52.003Z,5.00
2022-08-05T08:53:18.208Z,4.95
2022-08-05T08:56:03.141Z,5.30
2022-08-05T08:58:36.991Z,4.85
2022-08-05T09:01:16.469Z,4.13
2022-08-05T09:03:55.221Z,5.32
2022-08-05T09:06:30.025Z,5.38
2022-08-05T09:09:03.073Z,5.63
2022-08-05T09:11:50.955Z,6.20
2022-08-05T09:14:57.983Z,5.65
2022-08-05T09:17:40.188Z,7.70
2022-08-05T09:20:06.123Z,6.38
2022-08-05T09:23:18.530Z,4.80
2022-08-05T09:26:01.234Z,4.78
2022-08-05T09:28:37.562Z,7.15
2022-08-05T09:31:22.230Z,3.90
2022-08-05T09:34:01.741Z,4.10
2022-08-05T09:36:54.430Z,6.22
2022-08-05T09:39:39.178Z,7.50
2022-08-05T09:42:24.057Z,4.35
2022-08-05T09:45:17.412Z,3.58
2022-08-05T09:47:56.799Z,4.47
2022-08-05T09:50:44.645Z,5.07
2022-08-05T09:53:22.792Z,4.18
2022-08-05T09:56:03.930Z,3.75
2022-08-05T09:58:35.760Z,7.50
2022-08-05T10:01:31.756Z,5.88
2022-08-05T10:04:10.600Z,6.18
2022-08-05T10:06:49.733Z,5.80
2022-08-05T10:09:30.236Z,3.30
2022-08-05T10:12:18.907Z,6.38
2022-08-05T10:15:20.264Z,5.10
2022-08-05T10:18:13.906Z,4.40
2022-08-05T10:20:48.828Z,5.90
2022-08-05T10:23:34.141Z,8.57
2022-08-05T10:26:14.189Z,3.30
2022-08-05T10:28:46.774Z,7.20
2022-08-05T10:32:52.051Z,4.20
2022-08-05T10:34:11.071Z,4.43
2022-08-05T10:36:42.303Z,3.75
2022-08-05T10:39:24.139Z,3.30
2022-08-05T10:42:01.393Z,3.22
2022-08-05T10:44:32.856Z,3.30
2022-08-05T10:47:26.426Z,5.32
2022-08-05T10:50:32.495Z,4.97
2022-08-05T10:53:02.500Z,6.97
2022-08-05T10:55:38.747Z,4.22
2022-08-05T10:58:23.544Z,4.85
2022-08-05T11:01:13.258Z,4.65
2022-08-05T11:04:12.115Z,6.32
2022-08-05T11:07:11.618Z,5.18
2022-08-05T11:09:47.169Z,4.60
2022-08-05T11:12:54.506Z,7.13
2022-08-05T11:18:30.020Z,3.72
2022-08-05T11:21:11.336Z,4.43
2022-08-05T11:24:04.140Z,4.03
2022-08-05T11:26:49.582Z,4.65
2022-08-05T11:29:41.093Z,6.45
2022-08-05T11:32:28.771Z,4.60
2022-08-05T11:34:58.712Z,6.57
2022-08-05T11:38:29.526Z,4.78
2022-08-05T11:41:34.851Z,4.38
2022-08-05T11:44:06.328Z,6.13
2022-08-05T11:47:09.897Z,4.78
2022-08-05T11:49:29.443Z,4.07
2022-08-05T11:52:08.839Z,5.35
2022-08-05T11:54:48.473Z,3.47
2022-08-05T11:58:08.260Z,4.72
2022-08-05T12:00:29.134Z,3.40
2022-08-05T12:03:29.132Z,3.80
2022-08-05T12:06:05.859Z,4.32
2022-08-05T12:08:51.245Z,3.90
2022-08-05T12:11:40.402Z,4.00
2022-08-05T12:14:11.648Z,7.30
2022-08-05T12:16:45.609Z,5.13
2022-08-05T12:20:25.468Z,7.65
2022-08-05T12:22:20.165Z,4.22
2022-08-05T12:24:57.482Z,4.18
2022-08-05T12:27:32.770Z,6.07
2022-08-05T12:30:05.659Z,4.35
2022-08-05T12:32:35.454Z,8.30
2022-08-05T12:35:10.795Z,5.03
2022-08-05T12:37:40.565Z,5.78
2022-08-05T12:40:20.777Z,5.03
2022-08-05T12:42:59.508Z,3.50
2022-08-05T12:45:42.697Z,6.93
2022-08-05T12:48:32.699Z,3.50
2022-08-05T12:52:09.913Z,6.18
2022-08-05T12:54:04.924Z,4.78
2022-08-05T12:56:51.870Z,4.45
2022-08-05T12:59:46.713Z,3.50
2022-08-05T13:02:17.472Z,4.07
2022-08-05T13:04:52.502Z,4.30
2022-08-05T13:10:19.755Z,4.20
2022-08-05T13:12:51.138Z,5.60
2022-08-05T13:15:42.252Z,3.95
2022-08-05T13:18:20.627Z,5.35
2022-08-05T13:20:50.458Z,4.90
2022-08-05T13:23:22.529Z,3.95
2022-08-05T13:25:59.270Z,4.78
2022-08-05T13:28:32.380Z,4.05
2022-08-05T13:31:13.977Z,5.15
2022-08-05T13:34:22.109Z,7.32
2022-08-05T13:36:37.277Z,3.50
2022-08-05T13:40:12.793Z,4.35
2022-08-05T13:41:58.485Z,5.35
2022-08-05T13:44:28.480Z,3.53
2022-08-05T13:47:04.943Z,3.40
2022-08-05T13:49:38.547Z,3.55
2022-08-05T13:52:17.935Z,4.75
2022-08-05T13:54:53.309Z,4.93
2022-08-05T13:57:24.261Z,4.47
2022-08-05T13:59:59.296Z,3.47
2022-08-05T14:02:31.396Z,3.67
2022-08-05T14:05:15.145Z,5.00
2022-08-05T14:08:00.498Z,5.32
2022-08-05T14:10:35.509Z,3.85
2022-08-05T14:13:08.093Z,3.72
2022-08-05T14:16:07.267Z,3.70
2022-08-05T14:18:28.372Z,3.38
2022-08-05T14:20:58.023Z,4.38
2022-08-05T14:23:36.705Z,6.88
2022-08-05T14:26:07.050Z,5.28
2022-08-05T14:28:36.391Z,5.20
2022-08-05T14:31:54.298Z,3.38
2022-08-05T14:34:13.932Z,6.38
2022-08-05T14:36:43.166Z,3.75
2022-08-05T14:39:23.299Z,4.63
2022-08-05T14:42:19.466Z,3.13
2022-08-05T14:44:43.302Z,5.50
2022-08-05T14:47:14.231Z,3.92
2022-08-05T14:49:59.723Z,3.95
2022-08-05T14:52:51.880Z,3.72
2022-08-05T14:55:21.159Z,3.13
2022-08-05T14:57:56.204Z,5.78
2022-08-05T15:00:28.388Z,4.03
2022-08-05T15:02:59.119Z,4.22
2022-08-05T15:06:08.380Z,3.65
2022-08-05T15:08:57.573Z,9.52
2022-08-05T15:11:11.383Z,4.57
2022-08-05T15:13:45.800Z,4.75
2022-08-05T15:16:16.437Z,4.47
2022-08-05T15:18:47.253Z,3.05
2022-08-05T15:21:21.154Z,6.28
2022-08-05T15:23:51.129Z,4.50
2022-08-05T15:26:32.100Z,3.60
2022-08-05T15:29:02.442Z,6.82
2022-08-05T15:31:34.893Z,7.28
2022-08-05T15:34:31.607Z,3.33
2022-08-05T15:36:55.520Z,5.15
2022-08-05T15:40:58.218Z,3.92
2022-08-05T15:42:54.835Z,3.15
2022-08-05T15:45:04.000Z,4.60
2022-08-05T15:47:35.920Z,12.80
2022-08-05T15:50:06.539Z,14.13
2022-08-05T15:52:53.738Z,6.47
2022-08-05T15:56:02.884Z,6.45
2022-08-05T15:58:16.463Z,5.55
2022-08-05T16:00:51.001Z,7.10
2022-08-05T16:03:34.043Z,3.58
2022-08-05T16:06:03.428Z,6.78
2022-08-05T16:08:36.532Z,6.07
2022-08-05T16:11:08.002Z,5.43
2022-08-05T16:13:38.826Z,8.77
2022-08-05T16:16:10.647Z,7.07
2022-08-05T16:18:52.443Z,3.55
2022-08-05T16:21:59.347Z,4.18
2022-08-05T16:24:41.394Z,3.95
2022-08-05T16:27:07.562Z,4.90
2022-08-05T16:29:37.884Z,14.05
2022-08-05T16:32:09.967Z,6.60
2022-08-05T16:34:42.582Z,4.70
2022-08-05T16:38:03.553Z,4.35
2022-08-05T16:40:05.100Z,6.22
2022-08-05T16:42:37.154Z,6.70
2022-08-05T16:46:05.334Z,5.72
2022-08-05T16:48:02.964Z,5.50
2022-08-05T16:50:33.153Z,4.57
2022-08-05T16:53:12.431Z,4.95
2022-08-05T16:55:53.936Z,4.10
2022-08-05T16:58:26.280Z,4.40
2022-08-05T17:00:55.764Z,4.05
2022-08-05T17:03:25.346Z,5.03
2022-08-05T17:05:59.430Z,4.22
2022-08-05T17:08:35.757Z,6.15
2022-08-05T17:11:23.972Z,4.57
2022-08-05T17:14:05.404Z,5.32
2022-08-05T17:16:38.936Z,4.57
2022-08-05T17:19:13.605Z,6.10
2022-08-05T17:21:43.343Z,9.63
2022-08-05T17:24:35.162Z,6.22
2022-08-05T17:27:16.214Z,4.57
2022-08-05T17:29:48.920Z,5.82
2022-08-05T17:32:21.534Z,4.47
2022-08-05T17:34:58.177Z,7.47
2022-08-05T17:37:41.635Z,9.10
2022-08-05T17:40:18.803Z,4.63
2022-08-05T17:45:37.962Z,5.30
2022-08-05T17:48:09.042Z,7.63
2022-08-05T17:50:40.870Z,5.75
2022-08-05T17:53:11.399Z,7.28
2022-08-05T17:55:42.785Z,9.18
2022-08-05T17:58:16.147Z,6.95
2022-08-05T18:00:51.056Z,10.27
2022-08-05T18:03:59.231Z,7.00
2022-08-05T18:06:14.935Z,5.85
2022-08-05T18:08:52.117Z,4.80
2022-08-05T18:11:32.857Z,8.10
2022-08-05T18:14:07.441Z,6.97
2022-08-05T18:16:46.945Z,6.38
2022-08-05T18:19:23.287Z,7.65
2022-08-05T18:22:08.611Z,11.32
2022-08-05T18:24:43.190Z,6.60
2022-08-05T18:27:18.542Z,8.52
2022-08-05T18:29:54.344Z,12.43
2022-08-05T18:32:28.123Z,9.75
2022-08-05T18:34:59.087Z,7.35
2022-08-05T18:37:33.633Z,11.45
2022-08-05T18:40:33.595Z,5.60
2022-08-05T18:42:55.303Z,8.40
2022-08-05T18:45:41.345Z,7.05
2022-08-05T18:48:30.102Z,9.30
2022-08-05T18:52:04.849Z,7.75
2022-08-05T18:54:09.082Z,8.02
2022-08-05T18:56:38.514Z,8.55
2022-08-05T18:59:43.652Z,8.98
2022-08-05T19:01:58.920Z,7.40
2022-08-05T19:04:30.265Z,9.32
2022-08-05T19:06:59.422Z,8.05
2022-08-05T19:09:28.681Z,7.15
2022-08-05T19:12:11.423Z,8.80
2022-08-05T19:15:00.859Z,7.55
2022-08-05T19:17:59.475Z,7.55
2022-08-05T19:20:21.559Z,9.25
2022-08-05T19:22:54.306Z,11.35
2022-08-05T19:25:30.680Z,10.93
2022-08-05T19:28:08.443Z,8.90
2022-08-05T19:30:37.804Z,9.60
2022-08-05T19:33:12.853Z,7.45
2022-08-05T19:35:56.724Z,8.07
2022-08-05T19:38:26.843Z,9.25
2022-08-05T19:40:56.062Z,8.63
2022-08-05T19:44:06.490Z,9.15
2022-08-05T19:46:16.886Z,9.25
2022-08-05T19:49:03.256Z,7.45
2022-08-05T19:52:04.615Z,7.72
2022-08-05T19:54:29.430Z,10.07
2022-08-05T20:00:01.711Z,7.43
2022-08-05T20:02:22.031Z,14.27
2022-08-05T20:04:54.858Z,11.52
2022-08-05T20:07:46.567Z,10.77
2022-08-05T20:10:14.314Z,8.63
2022-08-05T20:12:47.676Z,8.13
2022-08-05T20:15:52.050Z,11.70
2022-08-05T20:18:33.332Z,9.65
2022-08-05T20:21:07.380Z,10.20
2022-08-05T20:23:51.301Z,10.75
2022-08-05T20:26:25.315Z,8.48
2022-08-05T20:28:57.665Z,8.50
2022-08-05T20:31:42.981Z,10.57
2022-08-05T20:34:22.974Z,13.98
2022-08-05T20:36:54.443Z,9.23
2022-08-05T20:39:24.765Z,9.73
2022-08-05T20:42:05.389Z,8.85
2022-08-05T20:44:38.032Z,8.63
2022-08-05T20:47:08.297Z,13.27
2022-08-05T20:49:39.918Z,11.38
2022-08-05T20:52:12.395Z,9.43
2022-08-05T20:54:59.897Z,11.40
2022-08-05T20:57:43.788Z,10.80
2022-08-05T21:00:40.523Z,10.80
2022-08-05T21:03:07.957Z,11.48
2022-08-05T21:05:54.109Z,10.02
2022-08-05T21:08:42.510Z,16.17
2022-08-05T21:11:51.650Z,11.27
2022-08-05T21:14:03.447Z,9.98
2022-08-05T21:16:37.569Z,11.23
2022-08-05T21:19:06.712Z,16.35
2022-08-05T21:21:44.169Z,9.55
2022-08-05T21:24:21.078Z,10.02
2022-08-05T21:26:56.069Z,10.82
2022-08-05T21:29:32.056Z,10.90
2022-08-05T21:32:03.446Z,13.75
2022-08-05T21:34:32.869Z,10.82
2022-08-05T21:37:02.460Z,8.80
2022-08-05T21:39:34.750Z,8.60
2022-08-05T21:42:43.619Z,7.85
2022-08-05T21:45:00.228Z,9.07
2022-08-05T21:47:56.874Z,9.40
2022-08-05T21:50:19.143Z,8.40
2022-08-05T21:52:51.415Z,9.18
2022-08-05T21:56:01.496Z,9.85
2022-08-05T21:58:11.685Z,12.00
2022-08-05T22:00:41.155Z,10.07
2022-08-05T22:03:48.905Z,9.13
2022-08-05T22:06:09.476Z,11.35
2022-08-05T22:08:42.464Z,8.63
2022-08-05T22:11:15.495Z,12.38
2022-08-05T22:14:34.264Z,10.88
2022-08-05T22:16:41.779Z,9.90
2022-08-05T22:20:02.225Z,11.40
2022-08-05T22:22:10.804Z,12.30
2022-08-05T22:24:58.958Z,10.65
2022-08-05T22:28:08.572Z,10.90
2022-08-05T22:30:35.811Z,17.40
2022-08-05T22:33:15.635Z,9.40
2022-08-05T22:35:48.814Z,12.45
2022-08-05T22:38:19.756Z,10.30
2022-08-05T22:40:54.948Z,10.43
2022-08-05T22:43:36.688Z,11.93
2022-08-05T22:46:13.140Z,9.10
2022-08-05T22:48:52.680Z,8.48
2022-08-05T22:51:22.715Z,12.10
2022-08-05T22:53:54.931Z,13.05
2022-08-05T22:56:29.787Z,9.52
2022-08-05T22:59:02.868Z,14.15
2022-08-05T23:02:04.337Z,12.68
2022-08-05T23:04:22.305Z,16.13
2022-08-05T23:06:51.497Z,12.50
2022-08-05T23:09:27.795Z,13.68
2022-08-05T23:12:11.580Z,10.60
2022-08-05T23:14:43.675Z,10.90
2022-08-05T23:17:34.917Z,12.27
2022-08-05T23:20:17.849Z,14.30
2022-08-05T23:22:48.378Z,14.23
2022-08-05T23:25:52.859Z,15.70
2022-08-05T23:28:08.437Z,14.25
2022-08-05T23:30:39.948Z,12.55
2022-08-05T23:33:16.088Z,13.52
2022-08-05T23:35:52.206Z,14.05
2022-08-05T23:38:26.829Z,13.43
2022-08-05T23:40:56.121Z,14.18
2022-08-05T23:43:37.267Z,11.15
2022-08-05T23:46:20.786Z,14.05
2022-08-05T23:49:01.171Z,13.90
2022-08-05T23:51:46.473Z,11.30
2022-08-05T23:54:25.893Z,14.07
2022-08-05T23:56:58.237Z,12.90
2022-08-05T23:59:37.604Z,12.10
